createdAt,value
2018-12-31T00:02:31.137Z,6.78
2018-12-31T00:05:03.618Z,6.77
2018-12-31T00:07:34.439Z,6.74
2018-12-31T00:10:23.951Z,6.71
2018-12-31T00:12:55.154Z,6.70
2018-12-31T00:15:25.757Z,6.72
2018-12-31T00:17:56.557Z,6.70
2018-12-31T00:20:27.365Z,6.73
2018-12-31T00:22:57.805Z,6.70
2018-12-31T00:25:28.286Z,6.70
2018-12-31T00:27:59.022Z,6.70
2018-12-31T00:30:29.465Z,6.75
2018-12-31T00:33:00.293Z,6.73
2018-12-31T00:35:30.739Z,6.79
2018-12-31T00:38:01.978Z,6.71
2018-12-31T00:40:32.426Z,6.79
2018-12-31T00:43:22.691Z,6.73
2018-12-31T00:45:53.455Z,6.73
2018-12-31T00:48:23.896Z,6.73
2018-12-31T00:50:54.371Z,6.81
2018-12-31T00:53:25.140Z,6.76
2018-12-31T00:56:15.421Z,6.79
2018-12-31T00:58:45.873Z,6.77
2018-12-31T01:01:16.307Z,6.73
2018-12-31T01:04:07.842Z,6.86
2018-12-31T01:06:38.293Z,6.74
2018-12-31T01:09:08.819Z,6.72
2018-12-31T01:11:39.266Z,6.80
2018-12-31T01:14:09.711Z,6.79
2018-12-31T01:16:40.181Z,6.82
2018-12-31T01:19:10.997Z,6.86
2018-12-31T01:21:41.504Z,6.82
2018-12-31T01:24:11.943Z,6.86
2018-12-31T01:27:01.891Z,6.85
2018-12-31T01:29:32.338Z,6.88
2018-12-31T01:32:04.499Z,6.82
2018-12-31T01:34:35.642Z,6.90
2018-12-31T01:37:06.093Z,6.89
2018-12-31T01:39:38.303Z,6.96
2018-12-31T01:42:09.222Z,6.94
2018-12-31T01:44:40.095Z,6.97
2018-12-31T01:47:10.566Z,6.92
2018-12-31T01:49:41.014Z,6.94
2018-12-31T01:52:11.878Z,6.92
2018-12-31T01:54:42.351Z,6.91
2018-12-31T01:57:13.130Z,6.95
2018-12-31T01:59:45.713Z,6.93
2018-12-31T02:05:31.854Z,6.97
2018-12-31T02:08:02.312Z,6.91
2018-12-31T02:10:32.761Z,6.92
2018-12-31T02:13:03.906Z,6.91
2018-12-31T02:15:34.355Z,6.87
2018-12-31T02:18:04.861Z,6.86
2018-12-31T02:20:35.706Z,6.90
2018-12-31T02:23:06.547Z,6.91
2018-12-31T02:25:37.016Z,6.90
2018-12-31T02:28:07.459Z,6.88
2018-12-31T02:30:37.943Z,6.87
2018-12-31T02:33:08.787Z,6.86
2018-12-31T02:35:39.228Z,6.86
2018-12-31T02:38:11.850Z,6.82
2018-12-31T02:40:42.615Z,6.82
2018-12-31T02:43:14.817Z,6.89
2018-12-31T02:45:45.267Z,6.85
2018-12-31T02:48:15.731Z,6.81
2018-12-31T02:50:46.521Z,6.87
2018-12-31T02:53:17.369Z,6.85
2018-12-31T02:55:48.275Z,6.79
2018-12-31T03:01:08.439Z,6.80
2018-12-31T03:03:39.251Z,6.82
2018-12-31T03:06:10.052Z,6.82
2018-12-31T03:09:18.846Z,6.82
2018-12-31T03:11:49.693Z,6.76
2018-12-31T03:14:20.536Z,6.81
2018-12-31T03:16:50.980Z,6.81
2018-12-31T03:19:21.458Z,6.83
2018-12-31T03:21:51.904Z,6.83
2018-12-31T03:24:42.211Z,6.84
2018-12-31T03:27:12.662Z,6.85
2018-12-31T03:32:59.288Z,6.89
2018-12-31T03:35:49.175Z,6.87
2018-12-31T03:38:19.663Z,6.87
2018-12-31T03:40:50.271Z,6.83
2018-12-31T03:43:20.725Z,6.83
2018-12-31T03:45:51.201Z,6.82
2018-12-31T03:48:21.643Z,6.86
2018-12-31T03:50:52.453Z,6.87
2018-12-31T03:53:42.400Z,6.86
2018-12-31T03:56:12.892Z,6.82
2018-12-31T03:58:43.692Z,6.86
2018-12-31T04:01:14.491Z,6.84
2018-12-31T04:03:45.143Z,6.81
2018-12-31T04:06:15.958Z,6.78
2018-12-31T04:08:46.883Z,6.74
2018-12-31T04:11:17.330Z,6.75
2018-12-31T04:13:47.776Z,6.77
2018-12-31T04:16:37.731Z,6.77
2018-12-31T04:19:08.235Z,6.76
2018-12-31T04:21:38.679Z,6.75
2018-12-31T04:24:09.134Z,6.74
2018-12-31T04:26:39.607Z,6.74
2018-12-31T04:29:10.054Z,6.73
2018-12-31T04:31:42.572Z,6.73
2018-12-31T04:34:32.854Z,6.72
2018-12-31T04:37:03.310Z,6.73
2018-12-31T04:39:35.520Z,6.75
2018-12-31T04:42:07.697Z,6.74
2018-12-31T04:44:38.170Z,6.75
2018-12-31T04:47:09.025Z,6.75
2018-12-31T04:49:39.463Z,6.76
2018-12-31T04:52:09.955Z,6.75
2018-12-31T04:54:40.399Z,6.75
2018-12-31T04:57:10.902Z,6.75
2018-12-31T04:59:41.375Z,6.75
2018-12-31T05:02:11.827Z,6.84
2018-12-31T05:04:42.475Z,6.82
2018-12-31T05:07:12.920Z,6.87
2018-12-31T05:09:43.684Z,6.89
2018-12-31T05:12:14.159Z,6.86
2018-12-31T05:14:44.608Z,6.84
2018-12-31T05:17:15.116Z,6.88
2018-12-31T05:19:45.562Z,6.87
2018-12-31T05:22:16.019Z,6.93
2018-12-31T05:25:06.077Z,6.90
2018-12-31T05:27:56.698Z,6.91
2018-12-31T05:30:27.206Z,6.86
2018-12-31T05:32:59.375Z,6.83
2018-12-31T05:35:29.847Z,6.85
2018-12-31T05:38:02.373Z,6.91
2018-12-31T05:40:32.819Z,6.95
2018-12-31T05:43:03.733Z,6.96
2018-12-31T05:45:34.927Z,6.90
2018-12-31T05:48:05.769Z,7.00
2018-12-31T05:50:36.245Z,6.95
2018-12-31T05:53:06.763Z,6.91
2018-12-31T05:55:37.605Z,6.89
2018-12-31T05:58:08.054Z,6.88
2018-12-31T06:00:42.093Z,6.88
2018-12-31T06:03:32.251Z,6.86
2018-12-31T06:06:02.770Z,6.84
2018-12-31T06:08:33.264Z,6.89
2018-12-31T06:11:04.084Z,6.87
2018-12-31T06:13:34.536Z,6.86
2018-12-31T06:16:05.012Z,6.85
2018-12-31T06:18:35.791Z,6.88
2018-12-31T06:21:06.444Z,6.91
2018-12-31T06:23:36.922Z,6.88
2018-12-31T06:26:07.335Z,6.88
2018-12-31T06:28:37.807Z,6.89
2018-12-31T06:31:10.330Z,6.88
2018-12-31T06:33:42.556Z,6.87
2018-12-31T06:36:32.850Z,6.87
2018-12-31T06:39:03.534Z,6.86
2018-12-31T06:41:33.977Z,6.91
2018-12-31T06:44:23.935Z,6.93
2018-12-31T06:47:13.863Z,6.91
2018-12-31T06:49:44.704Z,6.91
2018-12-31T06:52:15.164Z,6.89
2018-12-31T06:54:46.298Z,6.89
2018-12-31T06:57:16.795Z,6.93
2018-12-31T06:59:47.246Z,6.93
2018-12-31T07:02:18.112Z,6.93
2018-12-31T07:04:48.550Z,6.93
2018-12-31T07:07:37.934Z,6.94
2018-12-31T07:10:08.675Z,6.96
2018-12-31T07:12:39.124Z,6.90
2018-12-31T07:15:09.674Z,6.89
2018-12-31T07:17:40.119Z,6.94
2018-12-31T07:20:10.613Z,6.94
2018-12-31T07:22:41.057Z,6.95
2018-12-31T07:25:11.492Z,7.03
2018-12-31T07:27:42.329Z,6.97
2018-12-31T07:30:12.771Z,7.00
2018-12-31T07:33:02.704Z,6.99
2018-12-31T07:35:33.153Z,6.99
2018-12-31T07:38:03.678Z,6.97
2018-12-31T07:40:34.116Z,7.01
2018-12-31T07:43:04.557Z,6.96
2018-12-31T07:45:35.036Z,7.03
2018-12-31T07:48:05.471Z,7.06
2018-12-31T07:50:55.417Z,7.05
2018-12-31T07:53:26.156Z,7.06
2018-12-31T07:55:56.963Z,7.05
2018-12-31T07:58:27.452Z,7.05
2018-12-31T08:00:57.885Z,7.07
2018-12-31T08:03:28.321Z,7.10
2018-12-31T08:06:00.653Z,7.12
2018-12-31T08:08:32.800Z,7.09
2018-12-31T08:11:03.633Z,7.09
2018-12-31T08:13:34.116Z,7.06
2018-12-31T08:16:04.552Z,7.12
2018-12-31T08:18:35.338Z,7.11
2018-12-31T08:21:05.816Z,7.20
2018-12-31T08:23:36.251Z,7.26
2018-12-31T08:26:06.689Z,7.20
2018-12-31T08:28:37.633Z,7.17
2018-12-31T08:31:09.804Z,7.14
2018-12-31T08:33:40.242Z,7.17
2018-12-31T08:36:11.045Z,7.22
2018-12-31T08:38:41.484Z,7.23
2018-12-31T08:41:11.922Z,7.23
2018-12-31T08:43:42.805Z,7.24
2018-12-31T08:46:13.241Z,7.26
2018-12-31T08:48:43.679Z,7.24
2018-12-31T08:51:14.505Z,7.29
2018-12-31T08:53:45.759Z,7.31
2018-12-31T08:56:16.195Z,7.30
2018-12-31T08:58:47.075Z,7.34
2018-12-31T09:01:17.590Z,7.35
2018-12-31T09:03:48.321Z,7.35
2018-12-31T09:06:18.808Z,7.40
2018-12-31T09:08:49.277Z,7.47
2018-12-31T09:11:19.717Z,7.41
2018-12-31T09:13:50.493Z,7.45
2018-12-31T09:16:21.088Z,7.43
2018-12-31T09:18:51.524Z,7.51
2018-12-31T09:21:22.322Z,7.49
2018-12-31T09:23:54.802Z,7.54
2018-12-31T09:26:25.627Z,7.61
2018-12-31T09:28:56.113Z,7.62
2018-12-31T09:31:26.570Z,7.68
2018-12-31T09:33:57.002Z,7.62
2018-12-31T09:36:47.254Z,7.59
2018-12-31T09:39:19.413Z,7.60
2018-12-31T09:41:49.845Z,7.64
2018-12-31T09:44:20.340Z,7.68
2018-12-31T09:46:50.783Z,7.65
2018-12-31T09:49:21.621Z,7.71
2018-12-31T09:51:52.450Z,7.78
2018-12-31T09:54:22.902Z,7.82
2018-12-31T09:56:53.343Z,7.82
2018-12-31T09:59:25.540Z,7.85
2018-12-31T10:01:57.692Z,7.82
2018-12-31T10:04:30.233Z,7.88
2018-12-31T10:09:55.835Z,7.87
2018-12-31T10:12:45.789Z,7.96
2018-12-31T10:15:35.697Z,8.01
2018-12-31T10:18:06.190Z,7.99
2018-12-31T10:20:36.621Z,7.99
2018-12-31T10:23:07.050Z,8.03
2018-12-31T10:25:56.997Z,7.99
2018-12-31T10:28:27.735Z,8.03
2018-12-31T10:31:00.276Z,8.02
2018-12-31T10:33:30.760Z,7.98
2018-12-31T10:36:01.546Z,7.99
2018-12-31T10:38:31.985Z,8.02
2018-12-31T10:41:02.482Z,8.08
2018-12-31T10:43:33.245Z,8.13
2018-12-31T10:46:03.692Z,8.11
2018-12-31T10:48:34.599Z,8.05
2018-12-31T10:51:05.038Z,8.09
2018-12-31T10:53:35.785Z,8.13
2018-12-31T10:56:06.583Z,8.07
2018-12-31T10:58:37.026Z,8.13
2018-12-31T11:01:07.470Z,8.14
2018-12-31T11:03:38.309Z,8.19
2018-12-31T11:06:09.055Z,8.19
2018-12-31T11:08:39.521Z,8.28
2018-12-31T11:14:05.873Z,8.39
2018-12-31T11:16:36.362Z,8.33
2018-12-31T11:19:26.272Z,8.35
2018-12-31T11:21:57.073Z,8.40
2018-12-31T11:24:27.902Z,8.41
2018-12-31T11:29:47.704Z,8.41
2018-12-31T11:32:37.017Z,8.45
2018-12-31T11:35:07.905Z,8.46
2018-12-31T11:37:38.342Z,8.37
2018-12-31T11:40:28.013Z,8.43
2018-12-31T11:42:58.841Z,8.36
2018-12-31T11:45:48.268Z,8.38
2018-12-31T11:48:18.715Z,8.40
2018-12-31T11:51:08.077Z,8.39
2018-12-31T11:53:38.871Z,8.39
2018-12-31T11:56:09.707Z,8.50
2018-12-31T11:58:40.974Z,8.55
2018-12-31T12:01:11.409Z,8.63
2018-12-31T12:03:43.563Z,8.68
2018-12-31T12:06:14.041Z,8.68
2018-12-31T12:08:44.922Z,8.75
2018-12-31T12:11:16.326Z,8.72
2018-12-31T12:13:46.818Z,8.71
2018-12-31T12:16:17.254Z,8.80
2018-12-31T12:21:37.351Z,8.77
2018-12-31T12:24:07.794Z,8.74
2018-12-31T12:26:38.569Z,8.73
2018-12-31T12:29:09.028Z,8.73
2018-12-31T12:31:41.176Z,8.78
2018-12-31T12:34:31.415Z,8.77
2018-12-31T12:37:40.349Z,8.82
2018-12-31T12:40:30.301Z,8.82
2018-12-31T12:43:00.728Z,8.82
2018-12-31T12:45:50.688Z,8.78
2018-12-31T12:48:21.120Z,8.81
2018-12-31T12:50:51.940Z,8.79
2018-12-31T12:53:22.745Z,8.72
2018-12-31T12:55:53.179Z,8.70
2018-12-31T12:58:43.134Z,8.69
2018-12-31T13:01:33.034Z,8.70
2018-12-31T13:04:25.744Z,8.78
2018-12-31T13:07:15.950Z,8.78
2018-12-31T13:10:06.469Z,8.77
2018-12-31T13:12:36.905Z,8.83
2018-12-31T13:15:07.492Z,8.83
2018-12-31T13:17:57.442Z,8.87
2018-12-31T13:20:47.748Z,8.88
2018-12-31T13:23:18.589Z,8.94
2018-12-31T13:25:49.034Z,8.95
2018-12-31T13:28:39.000Z,8.79
2018-12-31T13:31:09.836Z,8.87
2018-12-31T13:33:42.304Z,8.92
2018-12-31T13:36:32.259Z,8.89
2018-12-31T13:42:11.929Z,8.88
2018-12-31T13:44:43.110Z,8.88
2018-12-31T13:47:13.564Z,8.91
2018-12-31T13:53:19.541Z,8.86
2018-12-31T13:55:49.987Z,8.89
2018-12-31T13:58:39.952Z,8.87
2018-12-31T14:01:29.857Z,8.93
2018-12-31T14:04:00.666Z,8.99
2018-12-31T14:06:31.507Z,8.96
2018-12-31T14:09:02.276Z,8.94
2018-12-31T14:11:33.288Z,8.96
2018-12-31T14:16:54.451Z,8.88
2018-12-31T14:19:25.558Z,8.92
2018-12-31T14:21:56.330Z,8.98
2018-12-31T14:24:46.286Z,8.96
2018-12-31T14:27:16.739Z,8.90
2018-12-31T14:29:47.183Z,8.81
2018-12-31T14:32:37.628Z,8.83
2018-12-31T14:35:09.896Z,8.86
2018-12-31T14:37:59.887Z,8.88
2018-12-31T14:40:50.144Z,8.84
2018-12-31T14:43:40.091Z,8.84
2018-12-31T14:46:30.009Z,8.90
2018-12-31T14:49:00.831Z,8.84
2018-12-31T14:51:31.284Z,8.86
2018-12-31T14:54:21.248Z,8.85
2018-12-31T14:56:52.078Z,8.78
2018-12-31T14:59:43.775Z,8.78
2018-12-31T15:02:14.534Z,8.78
2018-12-31T15:05:23.601Z,8.77
2018-12-31T15:07:54.053Z,8.71
2018-12-31T15:10:44.017Z,8.75
2018-12-31T15:13:33.931Z,8.77
2018-12-31T15:16:23.922Z,8.70
2018-12-31T15:19:14.213Z,8.76
2018-12-31T15:21:44.713Z,8.74
2018-12-31T15:24:15.167Z,8.70
2018-12-31T15:26:45.615Z,8.65
2018-12-31T15:29:17.827Z,8.73
2018-12-31T15:31:50.317Z,8.68
2018-12-31T15:34:42.598Z,8.70
2018-12-31T15:37:14.755Z,8.72
2018-12-31T15:39:45.204Z,8.69
2018-12-31T15:42:36.862Z,8.61
2018-12-31T15:45:26.787Z,8.66
2018-12-31T15:48:16.823Z,8.69
2018-12-31T15:50:47.645Z,8.69
2018-12-31T15:53:18.394Z,8.67
2018-12-31T15:56:10.026Z,8.66
2018-12-31T15:58:59.987Z,8.62
2018-12-31T16:04:20.296Z,8.62
2018-12-31T16:07:10.215Z,8.59
2018-12-31T16:10:00.177Z,8.54
2018-12-31T16:12:50.098Z,8.60
2018-12-31T16:15:40.061Z,8.60
2018-12-31T16:18:10.546Z,8.58
2018-12-31T16:21:02.202Z,8.59
2018-12-31T16:23:34.364Z,8.58
2018-12-31T16:26:24.320Z,8.55
2018-12-31T16:28:54.943Z,8.55
2018-12-31T16:31:25.387Z,8.52
2018-12-31T16:34:15.338Z,8.57
2018-12-31T16:36:46.201Z,8.60
2018-12-31T16:39:16.655Z,8.58
2018-12-31T16:44:42.388Z,8.58
2018-12-31T16:50:28.199Z,8.59
2018-12-31T16:52:58.697Z,8.51
2018-12-31T16:55:48.608Z,8.45
2018-12-31T16:58:38.567Z,8.43
2018-12-31T17:01:28.491Z,8.40
2018-12-31T17:03:58.991Z,8.29
2018-12-31T17:09:18.960Z,8.28
2018-12-31T17:12:09.013Z,8.27
2018-12-31T17:14:58.978Z,8.28
2018-12-31T17:17:29.428Z,8.35
2018-12-31T17:19:59.900Z,8.30
2018-12-31T17:22:30.715Z,8.28
2018-12-31T17:25:01.160Z,8.26
2018-12-31T17:27:51.118Z,8.28
2018-12-31T17:30:40.519Z,8.36
2018-12-31T17:33:11.015Z,8.34
2018-12-31T17:36:00.938Z,8.27
2018-12-31T17:38:31.828Z,8.32
2018-12-31T17:41:02.569Z,8.35
2018-12-31T17:43:52.850Z,8.37
2018-12-31T17:46:23.305Z,8.36
2018-12-31T17:49:14.973Z,8.38
2018-12-31T17:51:45.423Z,8.37
2018-12-31T17:54:15.873Z,8.34
2018-12-31T17:57:07.530Z,8.34
2018-12-31T17:59:37.979Z,8.33
2018-12-31T18:02:28.417Z,8.37
2018-12-31T18:05:17.834Z,8.30
2018-12-31T18:07:48.681Z,8.27
2018-12-31T18:13:33.494Z,8.36
2018-12-31T18:16:25.107Z,8.41
2018-12-31T18:18:55.599Z,8.49
2018-12-31T18:21:45.554Z,8.43
2018-12-31T18:24:17.750Z,8.43
2018-12-31T18:26:50.388Z,8.47
2018-12-31T18:29:22.603Z,8.43
2018-12-31T18:31:53.235Z,8.38
2018-12-31T18:34:24.058Z,8.40
2018-12-31T18:36:54.557Z,8.38
2018-12-31T18:39:25.004Z,8.37
2018-12-31T18:41:55.455Z,8.30
2018-12-31T18:44:26.070Z,8.35
2018-12-31T18:46:56.518Z,8.35
2018-12-31T18:49:27.353Z,8.36
2018-12-31T18:51:57.850Z,8.37
2018-12-31T18:57:39.167Z,8.44
2018-12-31T19:00:30.782Z,8.45
2018-12-31T19:03:03.346Z,8.41
2018-12-31T19:05:33.800Z,8.31
2018-12-31T19:08:04.345Z,8.38
2018-12-31T19:10:35.159Z,8.35
2018-12-31T19:13:05.930Z,8.35
2018-12-31T19:15:55.893Z,8.40
2018-12-31T19:18:26.337Z,8.39
2018-12-31T19:20:56.787Z,8.43
2018-12-31T19:23:27.675Z,8.40
2018-12-31T19:25:58.114Z,8.40
2018-12-31T19:28:28.557Z,8.41
2018-12-31T19:30:59.071Z,8.37
2018-12-31T19:33:29.835Z,8.40
2018-12-31T19:36:00.292Z,8.43
2018-12-31T19:38:50.247Z,8.41
2018-12-31T19:41:40.166Z,8.39
2018-12-31T19:44:30.131Z,8.39
2018-12-31T19:47:20.047Z,8.47
2018-12-31T19:49:50.549Z,8.51
2018-12-31T19:52:21.334Z,8.48
2018-12-31T19:54:51.779Z,8.47
2018-12-31T19:57:22.271Z,8.53
2018-12-31T19:59:54.444Z,8.43
2018-12-31T20:02:46.107Z,8.43
2018-12-31T20:05:16.556Z,8.44
2018-12-31T20:08:06.943Z,8.41
2018-12-31T20:10:37.801Z,8.45
2018-12-31T20:13:08.252Z,8.44
2018-12-31T20:15:38.759Z,8.45
2018-12-31T20:18:09.209Z,8.48
2018-12-31T20:20:40.033Z,8.47
2018-12-31T20:23:10.534Z,8.41
2018-12-31T20:26:00.480Z,8.41
2018-12-31T20:28:30.982Z,8.51
2018-12-31T20:31:20.900Z,8.50
2018-12-31T20:37:06.771Z,8.46
2018-12-31T20:39:37.623Z,8.44
2018-12-31T20:42:09.020Z,8.49
2018-12-31T20:44:39.855Z,8.49
2018-12-31T20:47:10.309Z,8.42
2018-12-31T20:49:40.768Z,8.48
2018-12-31T20:52:31.100Z,8.43
2018-12-31T20:55:01.939Z,8.40
2018-12-31T20:57:32.443Z,8.37
2018-12-31T21:00:22.359Z,8.40
2018-12-31T21:03:12.325Z,8.42
2018-12-31T21:06:02.248Z,8.43
2018-12-31T21:08:33.445Z,8.40
2018-12-31T21:11:03.889Z,8.43
2018-12-31T21:13:34.336Z,8.48
2018-12-31T21:16:05.618Z,8.47
2018-12-31T21:21:52.662Z,8.44
2018-12-31T21:24:23.816Z,8.45
2018-12-31T21:26:54.434Z,8.49
2018-12-31T21:29:24.889Z,8.46
2018-12-31T21:31:55.367Z,8.43
2018-12-31T21:34:25.818Z,8.40
2018-12-31T21:37:15.788Z,8.44
2018-12-31T21:39:58.964Z,8.40
2018-12-31T21:42:44.085Z,8.39
2018-12-31T21:45:22.240Z,8.37
2018-12-31T21:48:12.199Z,8.36
2018-12-31T21:50:43.066Z,8.33
2018-12-31T21:53:13.518Z,8.30
2018-12-31T21:55:43.993Z,8.33
2018-12-31T21:58:34.296Z,8.37
2018-12-31T22:01:04.792Z,8.34
2018-12-31T22:03:35.249Z,8.35
2018-12-31T22:06:26.923Z,8.34
2018-12-31T22:08:57.375Z,8.33
2018-12-31T22:11:47.315Z,8.30
2018-12-31T22:14:17.764Z,8.29
2018-12-31T22:16:48.506Z,8.33
2018-12-31T22:19:19.303Z,8.31
2018-12-31T22:21:49.749Z,8.32
2018-12-31T22:24:20.206Z,8.32
2018-12-31T22:26:52.788Z,8.30
2018-12-31T22:29:23.506Z,8.32
2018-12-31T22:31:54.359Z,8.35
2018-12-31T22:34:46.006Z,8.37
2018-12-31T22:37:16.571Z,8.36
2018-12-31T22:39:47.345Z,8.35
2018-12-31T22:42:39.367Z,8.34
2018-12-31T22:45:09.871Z,8.33
2018-12-31T22:47:42.066Z,8.31
2018-12-31T22:50:34.071Z,8.30
2018-12-31T22:53:04.531Z,8.19
2018-12-31T22:55:34.982Z,8.20
2018-12-31T22:58:05.690Z,8.19
2018-12-31T23:06:43.400Z,8.13
2018-12-31T23:09:15.903Z,8.18
2018-12-31T23:11:46.369Z,8.16
2018-12-31T23:14:16.837Z,8.17
2018-12-31T23:16:50.771Z,8.13
2018-12-31T23:19:21.227Z,8.09
2018-12-31T23:22:13.209Z,8.15
2018-12-31T23:24:43.747Z,8.11
2018-12-31T23:27:14.280Z,8.10
2018-12-31T23:29:45.503Z,8.07
2018-12-31T23:32:15.975Z,8.06
2018-12-31T23:38:02.825Z,8.08
2018-12-31T23:40:33.690Z,8.07
2018-12-31T23:43:06.537Z,8.11
2018-12-31T23:45:55.796Z,8.08
2018-12-31T23:48:26.674Z,8.06
2018-12-31T23:50:57.170Z,8.05
2018-12-31T23:53:27.626Z,7.99
2018-12-31T23:55:58.476Z,8.04
2018-12-31T23:58:47.935Z,8.06
